createdAt,value
2023-03-05T00:02:42.955Z,59.10
2023-03-05T00:05:43.899Z,59.10
2023-03-05T00:08:45.091Z,55.10
2023-03-05T00:11:45.881Z,60.92
2023-03-05T00:14:46.942Z,68.95
2023-03-05T00:17:47.961Z,62.30
2023-03-05T00:20:49.905Z,56.90
2023-03-05T00:23:51.897Z,65.45
2023-03-05T00:26:53.381Z,60.03
2023-03-05T00:29:54.388Z,60.47
2023-03-05T00:32:55.516Z,57.70
2023-03-05T00:35:57.378Z,58.00
2023-03-05T00:38:59.115Z,58.35
2023-03-05T00:42:00.116Z,58.10
2023-03-05T00:45:01.968Z,61.38
2023-03-05T00:48:04.916Z,57.17
2023-03-05T00:51:06.160Z,59.85
2023-03-05T00:54:07.488Z,62.13
2023-03-05T00:57:08.394Z,57.38
2023-03-05T01:00:11.950Z,64.35
2023-03-05T01:03:13.080Z,61.60
2023-03-05T01:06:16.594Z,63.13
2023-03-05T01:09:17.933Z,65.03
2023-03-05T01:12:19.154Z,62.47
2023-03-05T01:15:19.882Z,63.30
2023-03-05T01:18:21.283Z,67.35
2023-03-05T01:21:22.191Z,61.78
2023-03-05T01:24:23.369Z,57.33
2023-03-05T01:27:24.494Z,64.25
2023-03-05T01:30:25.266Z,61.45
2023-03-05T01:33:26.588Z,65.75
2023-03-05T01:36:27.562Z,60.53
2023-03-05T01:39:28.833Z,66.38
2023-03-05T01:42:30.010Z,60.10
2023-03-05T01:45:34.050Z,62.67
2023-03-05T01:48:34.954Z,59.75
2023-03-05T01:51:45.898Z,67.13
2023-03-05T01:54:53.688Z,60.97
2023-03-05T02:01:02.591Z,62.72
2023-03-05T02:04:04.091Z,62.97
2023-03-05T02:07:06.067Z,67.40
2023-03-05T02:10:30.529Z,63.85
2023-03-05T02:13:38.391Z,65.55
2023-03-05T02:16:39.761Z,66.10
2023-03-05T02:19:57.373Z,67.00
2023-03-05T02:22:58.797Z,67.43
2023-03-05T02:26:00.326Z,67.10
2023-03-05T02:29:05.504Z,60.65
2023-03-05T02:32:07.066Z,65.47
2023-03-05T02:35:09.076Z,73.70
2023-03-05T02:38:11.981Z,65.70
2023-03-05T02:41:13.914Z,57.58
2023-03-05T02:44:15.070Z,62.03
2023-03-05T02:47:15.809Z,61.47
2023-03-05T02:50:18.005Z,66.43
2023-03-05T02:53:19.401Z,67.72
2023-03-05T02:56:20.768Z,66.68
2023-03-05T02:59:21.639Z,65.65
2023-03-05T03:02:22.906Z,62.60
2023-03-05T03:05:23.920Z,68.28
2023-03-05T03:08:24.602Z,66.90
2023-03-05T03:11:25.454Z,69.88
2023-03-05T03:14:26.398Z,68.40
2023-03-05T03:17:27.581Z,71.80
2023-03-05T03:20:28.837Z,69.95
2023-03-05T03:23:30.898Z,67.80
2023-03-05T03:26:32.070Z,73.03
2023-03-05T03:29:33.535Z,65.03
2023-03-05T03:32:34.553Z,58.45
2023-03-05T03:35:35.844Z,71.28
2023-03-05T03:38:37.137Z,58.88
2023-03-05T03:41:43.430Z,65.50
2023-03-05T03:44:44.815Z,57.70
2023-03-05T03:47:45.534Z,61.30
2023-03-05T03:50:46.351Z,67.85
2023-03-05T03:53:47.250Z,63.95
2023-03-05T03:56:48.645Z,72.15
2023-03-05T03:59:50.550Z,63.92
2023-03-05T04:02:51.410Z,69.22
2023-03-05T04:05:52.204Z,71.40
2023-03-05T04:08:53.495Z,65.30
2023-03-05T04:11:54.597Z,69.85
2023-03-05T04:14:55.628Z,67.93
2023-03-05T04:17:56.871Z,58.67
2023-03-05T04:20:58.082Z,69.25
2023-03-05T04:23:59.323Z,70.45
2023-03-05T04:27:00.064Z,73.07
2023-03-05T04:30:01.602Z,66.57
2023-03-05T04:33:02.376Z,73.28
2023-03-05T04:36:03.822Z,73.47
2023-03-05T04:39:05.202Z,76.68
2023-03-05T04:42:09.453Z,72.88
2023-03-05T04:45:11.189Z,73.95
2023-03-05T04:48:12.883Z,76.93
2023-03-05T04:51:13.679Z,71.72
2023-03-05T04:54:14.866Z,69.32
2023-03-05T04:57:15.741Z,69.65
2023-03-05T05:00:18.686Z,75.63
2023-03-05T05:03:19.550Z,75.18
2023-03-05T05:06:20.632Z,73.68
2023-03-05T05:09:22.029Z,67.22
2023-03-05T05:12:22.788Z,74.50
2023-03-05T05:15:24.502Z,72.03
2023-03-05T05:18:27.549Z,64.50
2023-03-05T05:21:28.409Z,76.07
2023-03-05T05:24:29.690Z,72.30
2023-03-05T05:27:30.402Z,60.15
2023-03-05T05:30:31.171Z,69.97
2023-03-05T05:33:32.365Z,67.95
2023-03-05T05:36:33.179Z,64.95
2023-03-05T05:39:34.956Z,71.78
2023-03-05T05:42:35.957Z,71.25
2023-03-05T05:45:40.962Z,65.30
2023-03-05T05:48:42.770Z,72.47
2023-03-05T05:51:44.151Z,73.53
2023-03-05T05:54:45.193Z,67.22
2023-03-05T05:57:46.436Z,76.05
2023-03-05T06:00:47.228Z,64.03
2023-03-05T06:03:49.108Z,66.60
2023-03-05T06:06:50.215Z,76.30
2023-03-05T06:09:51.305Z,69.38
2023-03-05T06:12:51.920Z,73.95
2023-03-05T06:15:58.766Z,70.32
2023-03-05T06:19:00.268Z,74.22
2023-03-05T06:22:00.863Z,72.20
2023-03-05T06:25:01.576Z,65.13
2023-03-05T06:28:02.735Z,78.35
2023-03-05T06:31:22.715Z,74.95
2023-03-05T06:34:23.805Z,64.82
2023-03-05T06:37:24.618Z,69.30
2023-03-05T06:40:25.896Z,73.57
2023-03-05T06:43:27.212Z,70.75
2023-03-05T06:46:31.955Z,75.65
2023-03-05T06:49:33.346Z,66.47
2023-03-05T06:52:34.382Z,72.82
2023-03-05T06:55:39.883Z,64.80
2023-03-05T06:58:41.528Z,68.30
2023-03-05T07:01:43.693Z,67.10
2023-03-05T07:04:45.017Z,66.22
2023-03-05T07:07:46.025Z,77.47
2023-03-05T07:10:46.746Z,69.90
2023-03-05T07:13:48.317Z,71.95
2023-03-05T07:16:50.442Z,70.45
2023-03-05T07:19:51.640Z,70.55
2023-03-05T07:22:52.922Z,74.95
2023-03-05T07:25:54.159Z,83.45
2023-03-05T07:28:55.780Z,73.72
2023-03-05T07:31:56.749Z,76.78
2023-03-05T07:34:57.576Z,70.88
2023-03-05T07:37:58.428Z,79.82
2023-03-05T07:41:09.578Z,73.47
2023-03-05T07:44:10.419Z,78.63
2023-03-05T07:47:11.378Z,72.50
2023-03-05T07:50:12.792Z,72.68
2023-03-05T07:53:15.196Z,66.18
2023-03-05T07:56:32.659Z,60.65
2023-03-05T07:59:33.843Z,58.42
2023-03-05T08:02:35.159Z,65.80
2023-03-05T08:05:40.467Z,67.68
2023-03-05T08:08:41.374Z,59.95
2023-03-05T08:11:42.536Z,70.03
2023-03-05T08:14:43.369Z,61.72
2023-03-05T08:17:44.466Z,59.17
2023-03-05T08:20:45.222Z,65.78
2023-03-05T08:23:47.003Z,65.40
2023-03-05T08:26:47.721Z,68.65
2023-03-05T08:29:48.530Z,65.82
2023-03-05T08:32:50.297Z,57.75
2023-03-05T08:35:51.140Z,65.13
2023-03-05T08:38:52.475Z,60.45
2023-03-05T08:41:53.408Z,60.33
2023-03-05T08:44:54.365Z,58.33
2023-03-05T08:47:57.404Z,60.47
2023-03-05T08:51:05.765Z,64.03
2023-03-05T08:54:07.698Z,63.30
2023-03-05T08:57:08.857Z,56.65
2023-03-05T09:00:12.755Z,63.47
2023-03-05T09:03:14.096Z,59.15
2023-03-05T09:06:16.114Z,58.88
2023-03-05T09:09:16.937Z,62.00
2023-03-05T09:12:17.766Z,68.85
2023-03-05T09:15:18.504Z,68.57
2023-03-05T09:18:19.928Z,62.70
2023-03-05T09:21:21.168Z,63.85
2023-03-05T09:24:21.922Z,56.75
2023-03-05T09:27:23.094Z,52.75
2023-03-05T09:30:24.054Z,52.05
2023-03-05T09:33:25.182Z,52.20
2023-03-05T09:36:30.173Z,53.08
2023-03-05T09:39:31.163Z,57.60
2023-03-05T09:43:02.522Z,61.60
2023-03-05T09:46:44.052Z,58.63
2023-03-05T09:50:14.994Z,52.47
2023-03-05T09:53:37.458Z,56.80
2023-03-05T09:56:57.032Z,54.50
2023-03-05T10:00:09.916Z,58.40
2023-03-05T10:03:42.407Z,52.70
2023-03-05T10:07:02.889Z,55.25
2023-03-05T10:10:14.378Z,52.85
2023-03-05T10:13:32.426Z,54.17
2023-03-05T10:17:17.820Z,58.00
2023-03-05T10:20:21.550Z,54.00
2023-03-05T10:24:11.628Z,51.35
2023-03-05T10:27:41.177Z,56.95
2023-03-05T10:31:07.508Z,51.72
2023-03-05T10:34:25.660Z,50.45
2023-03-05T10:38:12.687Z,53.33
2023-03-05T10:44:36.440Z,46.15
2023-03-05T10:47:59.565Z,51.72
2023-03-05T10:51:17.018Z,51.70
2023-03-05T10:57:34.102Z,54.15
2023-03-05T11:00:34.953Z,54.00
2023-03-05T11:04:04.364Z,45.38
2023-03-05T11:07:25.346Z,53.83
2023-03-05T11:10:26.784Z,40.22
2023-03-05T11:13:29.368Z,32.35
2023-03-05T11:16:34.087Z,27.67
2023-03-05T11:19:35.515Z,17.30
2023-03-05T11:22:36.544Z,12.77
2023-03-05T11:26:13.424Z,22.05
2023-03-05T11:29:31.064Z,27.73
2023-03-05T11:32:32.174Z,23.13
2023-03-05T11:35:38.176Z,26.98
2023-03-05T11:39:08.066Z,28.00
2023-03-05T11:42:25.177Z,30.30
2023-03-05T11:45:28.788Z,22.30
2023-03-05T11:48:37.189Z,21.80
2023-03-05T11:51:48.662Z,23.27
2023-03-05T11:54:57.246Z,23.20
2023-03-05T11:58:26.726Z,21.35
2023-03-05T12:01:33.134Z,23.25
2023-03-05T12:04:36.545Z,24.13
2023-03-05T12:07:46.593Z,21.25
2023-03-05T12:10:47.849Z,22.02
2023-03-05T12:14:38.830Z,19.55
2023-03-05T12:18:10.389Z,21.00
2023-03-05T12:21:39.763Z,17.38
2023-03-05T12:24:41.105Z,22.42
2023-03-05T12:27:42.488Z,21.75
2023-03-05T12:30:43.632Z,14.63
2023-03-05T12:33:44.753Z,12.00
2023-03-05T12:36:46.421Z,13.15
2023-03-05T12:40:23.039Z,15.88
2023-03-05T12:43:30.120Z,16.30
2023-03-05T12:46:44.454Z,12.05
2023-03-05T12:49:47.479Z,11.93
2023-03-05T12:52:48.777Z,13.63
2023-03-05T12:56:22.261Z,13.80
2023-03-05T12:59:48.335Z,14.73
2023-03-05T13:02:58.690Z,13.50
2023-03-05T13:06:01.044Z,12.30
2023-03-05T13:09:15.899Z,9.95
2023-03-05T13:12:17.682Z,11.88
2023-03-05T13:15:18.751Z,13.93
2023-03-05T13:18:24.159Z,17.40
2023-03-05T13:21:29.846Z,18.45
2023-03-05T13:24:31.267Z,13.45
2023-03-05T13:27:33.615Z,14.35
2023-03-05T13:30:34.856Z,14.20
2023-03-05T13:33:36.680Z,16.10
2023-03-05T13:36:39.814Z,20.10
2023-03-05T13:40:15.686Z,21.17
2023-03-05T13:43:20.847Z,18.98
2023-03-05T13:46:38.817Z,22.00
2023-03-05T13:49:39.655Z,26.20
2023-03-05T13:52:40.511Z,21.17
2023-03-05T13:55:42.101Z,28.20
2023-03-05T13:58:57.367Z,22.52
2023-03-05T14:02:01.550Z,20.20
2023-03-05T14:05:03.201Z,21.77
2023-03-05T14:08:04.689Z,16.75
2023-03-05T14:11:18.739Z,10.80
2023-03-05T14:14:22.158Z,13.13
2023-03-05T14:17:40.895Z,14.05
2023-03-05T14:21:10.008Z,11.10
2023-03-05T14:24:23.582Z,11.95
2023-03-05T14:27:25.144Z,12.88
2023-03-05T14:30:26.755Z,11.57
2023-03-05T14:33:32.626Z,13.75
2023-03-05T14:36:34.873Z,13.23
2023-03-05T14:39:50.020Z,10.63
2023-03-05T14:43:10.641Z,11.55
2023-03-05T14:46:13.490Z,12.98
2023-03-05T14:49:14.649Z,11.55
2023-03-05T14:52:25.880Z,10.73
2023-03-05T14:55:33.875Z,10.70
2023-03-05T14:58:37.830Z,11.45
2023-03-05T15:01:38.839Z,12.30
2023-03-05T15:04:40.713Z,12.73
2023-03-05T15:07:44.307Z,11.68
2023-03-05T15:10:45.532Z,14.23
2023-03-05T15:13:46.631Z,15.13
2023-03-05T15:16:48.928Z,14.50
2023-03-05T15:19:50.466Z,14.93
2023-03-05T15:22:51.780Z,14.05
2023-03-05T15:25:52.587Z,11.13
2023-03-05T15:28:53.401Z,13.48
2023-03-05T15:31:54.239Z,13.57
2023-03-05T15:34:55.893Z,11.45
2023-03-05T15:37:58.267Z,12.60
2023-03-05T15:41:01.722Z,10.82
2023-03-05T15:44:02.982Z,14.70
2023-03-05T15:47:03.872Z,8.63
2023-03-05T15:50:05.881Z,11.98
2023-03-05T15:53:08.201Z,9.02
2023-03-05T15:56:16.651Z,9.95
2023-03-05T15:59:18.689Z,12.02
2023-03-05T16:02:19.547Z,10.80
2023-03-05T16:05:20.654Z,9.43
2023-03-05T16:08:21.372Z,9.82
2023-03-05T16:11:22.668Z,11.25
2023-03-05T16:14:27.952Z,10.20
2023-03-05T16:17:29.187Z,15.10
2023-03-05T16:20:30.208Z,11.18
2023-03-05T16:23:31.398Z,11.20
2023-03-05T16:26:37.351Z,10.15
2023-03-05T16:29:38.647Z,10.25
2023-03-05T16:32:39.433Z,9.35
2023-03-05T16:35:40.646Z,8.68
2023-03-05T16:38:41.426Z,11.30
2023-03-05T16:41:42.248Z,15.70
2023-03-05T16:44:44.916Z,8.98
2023-03-05T16:47:45.840Z,10.40
2023-03-05T16:50:46.625Z,11.20
2023-03-05T16:53:47.427Z,14.77
2023-03-05T16:56:48.725Z,13.65
2023-03-05T16:59:50.241Z,12.95
2023-03-05T17:02:51.309Z,11.57
2023-03-05T17:05:51.912Z,11.80
2023-03-05T17:08:54.782Z,11.18
2023-03-05T17:11:55.805Z,14.55
2023-03-05T17:14:56.936Z,13.27
2023-03-05T17:17:58.210Z,10.77
2023-03-05T17:21:02.339Z,11.25
2023-03-05T17:24:03.977Z,13.85
2023-03-05T17:27:05.085Z,11.52
2023-03-05T17:30:08.483Z,12.57
2023-03-05T17:33:11.571Z,17.08
2023-03-05T17:36:19.413Z,13.20
2023-03-05T17:39:20.735Z,11.23
2023-03-05T17:42:21.650Z,12.70
2023-03-05T17:45:23.096Z,13.93
2023-03-05T17:48:24.092Z,13.00
2023-03-05T17:51:24.830Z,11.38
2023-03-05T17:54:26.305Z,13.48
2023-03-05T17:57:27.205Z,12.98
2023-03-05T18:00:30.453Z,16.52
2023-03-05T18:03:32.103Z,17.42
2023-03-05T18:06:33.374Z,13.80
2023-03-05T18:09:34.349Z,15.95
2023-03-05T18:12:36.248Z,15.95
2023-03-05T18:15:40.620Z,15.57
2023-03-05T18:18:42.022Z,17.95
2023-03-05T18:21:43.048Z,21.85
2023-03-05T18:24:44.175Z,20.55
2023-03-05T18:27:45.468Z,21.25
2023-03-05T18:30:48.063Z,17.05
2023-03-05T18:33:50.489Z,13.75
2023-03-05T18:36:51.770Z,16.50
2023-03-05T18:39:52.888Z,18.33
2023-03-05T18:42:54.625Z,12.75
2023-03-05T18:45:57.080Z,14.80
2023-03-05T18:48:58.093Z,14.23
2023-03-05T18:51:58.876Z,13.98
2023-03-05T18:55:00.189Z,14.82
2023-03-05T18:58:01.208Z,14.90
2023-03-05T19:01:03.880Z,18.77
2023-03-05T19:04:05.272Z,14.55
2023-03-05T19:07:06.409Z,15.82
2023-03-05T19:10:11.953Z,23.40
2023-03-05T19:13:40.742Z,18.38
2023-03-05T19:16:44.253Z,17.52
2023-03-05T19:19:51.374Z,17.60
2023-03-05T19:22:52.474Z,17.25
2023-03-05T19:25:53.470Z,20.45
2023-03-05T19:28:55.357Z,19.38
2023-03-05T19:31:56.210Z,15.38
2023-03-05T19:34:59.055Z,17.80
2023-03-05T19:38:00.290Z,15.55
2023-03-05T19:41:01.048Z,17.90
2023-03-05T19:44:02.891Z,17.15
2023-03-05T19:47:04.191Z,16.35
2023-03-05T19:50:06.357Z,12.98
2023-03-05T19:53:07.360Z,14.30
2023-03-05T19:56:10.165Z,14.93
2023-03-05T19:59:11.000Z,14.60
2023-03-05T20:02:13.320Z,17.02
2023-03-05T20:05:14.598Z,13.18
2023-03-05T20:08:16.139Z,13.38
2023-03-05T20:11:19.049Z,16.65
2023-03-05T20:14:20.417Z,14.15
2023-03-05T20:17:21.697Z,14.73
2023-03-05T20:20:22.568Z,15.38
2023-03-05T20:23:24.681Z,16.65
2023-03-05T20:26:27.467Z,13.82
2023-03-05T20:29:28.727Z,14.40
2023-03-05T20:32:29.677Z,18.73
2023-03-05T20:35:30.638Z,18.30
2023-03-05T20:38:31.823Z,13.27
2023-03-05T20:41:36.483Z,21.38
2023-03-05T20:44:37.543Z,17.88
2023-03-05T20:47:42.455Z,13.95
2023-03-05T20:50:43.742Z,20.05
2023-03-05T20:53:45.878Z,20.65
2023-03-05T20:56:47.888Z,17.38
2023-03-05T20:59:48.913Z,21.35
2023-03-05T21:02:51.848Z,23.60
2023-03-05T21:05:56.548Z,18.52
2023-03-05T21:08:58.936Z,20.40
2023-03-05T21:12:00.401Z,19.25
2023-03-05T21:15:01.459Z,19.58
2023-03-05T21:18:02.259Z,20.80
2023-03-05T21:21:03.829Z,25.52
2023-03-05T21:24:05.573Z,31.85
2023-03-05T21:27:06.550Z,27.38
2023-03-05T21:30:09.635Z,17.98
2023-03-05T21:33:15.750Z,26.00
2023-03-05T21:36:19.024Z,19.83
2023-03-05T21:39:20.242Z,20.10
2023-03-05T21:42:20.918Z,16.92
2023-03-05T21:45:27.132Z,20.58
2023-03-05T21:48:28.842Z,25.23
2023-03-05T21:52:09.748Z,18.35
2023-03-05T21:55:15.825Z,19.15
2023-03-05T21:58:16.595Z,20.80
2023-03-05T22:01:19.607Z,24.45
2023-03-05T22:04:20.841Z,24.27
2023-03-05T22:07:22.074Z,15.18
2023-03-05T22:10:23.286Z,20.88
2023-03-05T22:13:24.390Z,15.73
2023-03-05T22:16:27.532Z,17.20
2023-03-05T22:19:29.969Z,19.52
2023-03-05T22:22:31.021Z,16.00
2023-03-05T22:25:32.891Z,17.15
2023-03-05T22:28:35.866Z,24.40
2023-03-05T22:31:36.728Z,14.65
2023-03-05T22:34:37.722Z,10.98
2023-03-05T22:37:40.329Z,14.70
2023-03-05T22:40:44.762Z,15.15
2023-03-05T22:43:47.168Z,20.95
2023-03-05T22:46:48.265Z,24.08
2023-03-05T22:49:49.314Z,32.55
2023-03-05T22:52:50.999Z,21.77
2023-03-05T22:55:52.193Z,31.45
2023-03-05T22:58:52.914Z,24.45
2023-03-05T23:01:54.207Z,26.50
2023-03-05T23:05:00.532Z,24.38
2023-03-05T23:08:01.444Z,21.05
2023-03-05T23:11:12.073Z,25.60
2023-03-05T23:14:13.113Z,24.50
2023-03-05T23:17:14.607Z,27.83
2023-03-05T23:20:24.009Z,23.48
2023-03-05T23:23:24.821Z,36.35
2023-03-05T23:26:25.809Z,25.02
2023-03-05T23:30:23.704Z,25.83
2023-03-05T23:33:25.171Z,25.17
2023-03-05T23:36:26.681Z,24.80
2023-03-05T23:39:27.636Z,27.52
2023-03-05T23:42:28.279Z,28.88
2023-03-05T23:45:30.281Z,22.25
2023-03-05T23:48:31.381Z,24.92
2023-03-05T23:51:32.393Z,26.13
2023-03-05T23:54:33.258Z,22.92
2023-03-05T23:57:35.762Z,23.65
